sensor_id;sensor_type;location;lat;lon;timestamp;pressure;altitude;pressure_sealevel;temperature;humidity
52735;BME280;38631;47.572;10.704;2023-02-28T00:01:21;92681.69;;;-5.02;97.18
52735;BME280;38631;47.572;10.704;2023-02-28T00:03:47;92676.03;;;-5.24;97.81
52735;BME280;38631;47.572;10.704;2023-02-28T00:06:12;92676.78;;;-5.17;99.10
52735;BME280;38631;47.572;10.704;2023-02-28T00:08:38;92680.56;;;-5.13;98.13
52735;BME280;38631;47.572;10.704;2023-02-28T00:11:06;92680.38;;;-5.18;98.64
52735;BME280;38631;47.572;10.704;2023-02-28T00:13:33;92676.22;;;-5.19;98.91
52735;BME280;38631;47.572;10.704;2023-02-28T00:16:05;92684.78;;;-5.25;98.90
52735;BME280;38631;47.572;10.704;2023-02-28T00:18:31;92676.03;;;-5.24;98.09
52735;BME280;38631;47.572;10.704;2023-02-28T00:20:57;92669.22;;;-5.18;98.88
52735;BME280;38631;47.572;10.704;2023-02-28T00:23:22;92674.38;;;-5.12;98.66
52735;BME280;38631;47.572;10.704;2023-02-28T00:25:48;92675.38;;;-5.13;98.05
52735;BME280;38631;47.572;10.704;2023-02-28T00:28:13;92677.66;;;-5.36;97.51
52735;BME280;38631;47.572;10.704;2023-02-28T00:30:39;92678.38;;;-5.16;99.13
52735;BME280;38631;47.572;10.704;2023-02-28T00:33:04;92674.44;;;-5.32;97.51
52735;BME280;38631;47.572;10.704;2023-02-28T00:35:29;92677.44;;;-5.35;98.14
52735;BME280;38631;47.572;10.704;2023-02-28T00:37:55;92684.84;;;-5.38;98.76
52735;BME280;38631;47.572;10.704;2023-02-28T00:40:20;92676.72;;;-5.55;99.05
52735;BME280;38631;47.572;10.704;2023-02-28T00:42:46;92683.03;;;-5.31;98.99
52735;BME280;38631;47.572;10.704;2023-02-28T00:45:11;92663.19;;;-5.57;99.05
52735;BME280;38631;47.572;10.704;2023-02-28T00:47:37;92671.91;;;-5.38;99.12
52735;BME280;38631;47.572;10.704;2023-02-28T00:50:03;92667.50;;;-5.38;98.84
52735;BME280;38631;47.572;10.704;2023-02-28T00:52:29;92664.91;;;-5.31;97.72
52735;BME280;38631;47.572;10.704;2023-02-28T00:54:54;92663.56;;;-5.47;96.81
52735;BME280;38631;47.572;10.704;2023-02-28T00:57:20;92668.28;;;-5.31;97.92
52735;BME280;38631;47.572;10.704;2023-02-28T00:59:45;92668.44;;;-5.19;98.04
52735;BME280;38631;47.572;10.704;2023-02-28T01:02:10;92666.72;;;-5.38;97.28
52735;BME280;38631;47.572;10.704;2023-02-28T01:04:36;92660.00;;;-5.53;96.61
52735;BME280;38631;47.572;10.704;2023-02-28T01:07:01;92657.19;;;-5.45;97.85
52735;BME280;38631;47.572;10.704;2023-02-28T01:09:26;92656.97;;;-5.43;98.50
52735;BME280;38631;47.572;10.704;2023-02-28T01:11:52;92647.66;;;-5.51;98.97
52735;BME280;38631;47.572;10.704;2023-02-28T01:14:18;92653.63;;;-5.50;96.59
52735;BME280;38631;47.572;10.704;2023-02-28T01:16:43;92634.19;;;-5.66;95.60
52735;BME280;38631;47.572;10.704;2023-02-28T01:19:09;92636.19;;;-5.75;96.70
52735;BME280;38631;47.572;10.704;2023-02-28T01:21:34;92642.50;;;-5.57;98.45
52735;BME280;38631;47.572;10.704;2023-02-28T01:24:01;92633.69;;;-5.43;96.93
52735;BME280;38631;47.572;10.704;2023-02-28T01:26:26;92633.41;;;-5.73;96.11
52735;BME280;38631;47.572;10.704;2023-02-28T01:28:52;92631.16;;;-5.56;96.49
52735;BME280;38631;47.572;10.704;2023-02-28T01:31:19;92643.28;;;-5.50;97.20
52735;BME280;38631;47.572;10.704;2023-02-28T01:33:45;92632.50;;;-5.47;95.97
52735;BME280;38631;47.572;10.704;2023-02-28T01:36:13;92635.75;;;-5.58;96.59
52735;BME280;38631;47.572;10.704;2023-02-28T01:38:39;92635.31;;;-5.49;97.06
52735;BME280;38631;47.572;10.704;2023-02-28T01:41:05;92629.38;;;-5.56;96.38
52735;BME280;38631;47.572;10.704;2023-02-28T01:46:19;92618.97;;;-5.94;99.10
52735;BME280;38631;47.572;10.704;2023-02-28T01:48:51;92622.28;;;-5.87;97.32
52735;BME280;38631;47.572;10.704;2023-02-28T01:51:22;92616.22;;;-6.13;96.16
52735;BME280;38631;47.572;10.704;2023-02-28T01:53:56;92625.56;;;-6.18;98.53
52735;BME280;38631;47.572;10.704;2023-02-28T01:56:29;92621.97;;;-6.11;97.05
52735;BME280;38631;47.572;10.704;2023-02-28T01:58:55;92626.13;;;-6.03;96.88
52735;BME280;38631;47.572;10.704;2023-02-28T02:01:22;92620.59;;;-6.13;95.21
52735;BME280;38631;47.572;10.704;2023-02-28T02:03:49;92622.75;;;-6.10;95.67
52735;BME280;38631;47.572;10.704;2023-02-28T02:06:22;92617.59;;;-6.10;95.89
52735;BME280;38631;47.572;10.704;2023-02-28T02:08:48;92605.69;;;-6.11;96.05
52735;BME280;38631;47.572;10.704;2023-02-28T02:11:17;92600.28;;;-6.03;96.26
52735;BME280;38631;47.572;10.704;2023-02-28T02:17:15;92603.66;;;-6.02;96.05
52735;BME280;38631;47.572;10.704;2023-02-28T02:27:59;92590.41;;;-6.19;96.46
52735;BME280;38631;47.572;10.704;2023-02-28T02:36:07;92602.31;;;-6.12;97.42
52735;BME280;38631;47.572;10.704;2023-02-28T02:38:57;92610.41;;;-5.95;96.57
52735;BME280;38631;47.572;10.704;2023-02-28T02:41:51;92603.22;;;-5.93;95.96
52735;BME280;38631;47.572;10.704;2023-02-28T02:44:43;92610.44;;;-6.15;97.02
52735;BME280;38631;47.572;10.704;2023-02-28T02:47:17;92615.56;;;-5.95;98.39
52735;BME280;38631;47.572;10.704;2023-02-28T02:49:51;92613.09;;;-5.70;96.49
52735;BME280;38631;47.572;10.704;2023-02-28T02:52:21;92620.75;;;-5.95;95.73
52735;BME280;38631;47.572;10.704;2023-02-28T02:54:50;92628.72;;;-5.96;97.91
52735;BME280;38631;47.572;10.704;2023-02-28T02:57:45;92635.03;;;-5.92;97.68
52735;BME280;38631;47.572;10.704;2023-02-28T03:00:14;92632.25;;;-5.84;98.80
52735;BME280;38631;47.572;10.704;2023-02-28T03:02:41;92627.25;;;-5.86;99.74
52735;BME280;38631;47.572;10.704;2023-02-28T03:05:15;92629.00;;;-5.73;99.13
52735;BME280;38631;47.572;10.704;2023-02-28T03:07:43;92634.78;;;-5.64;99.62
52735;BME280;38631;47.572;10.704;2023-02-28T03:13:15;92642.41;;;-5.37;100.00
52735;BME280;38631;47.572;10.704;2023-02-28T03:21:08;92644.28;;;-5.51;99.00
52735;BME280;38631;47.572;10.704;2023-02-28T03:23:47;92651.78;;;-5.36;99.57
52735;BME280;38631;47.572;10.704;2023-02-28T03:26:21;92649.63;;;-5.46;99.20
52735;BME280;38631;47.572;10.704;2023-02-28T03:28:57;92645.22;;;-5.39;99.19
52735;BME280;38631;47.572;10.704;2023-02-28T03:31:33;92650.53;;;-5.27;99.23
52735;BME280;38631;47.572;10.704;2023-02-28T03:34:09;92654.50;;;-5.25;98.72
52735;BME280;38631;47.572;10.704;2023-02-28T03:36:38;92652.34;;;-5.34;98.63
52735;BME280;38631;47.572;10.704;2023-02-28T03:39:14;92653.25;;;-5.54;99.58
52735;BME280;38631;47.572;10.704;2023-02-28T03:41:49;92647.03;;;-5.46;99.04
52735;BME280;38631;47.572;10.704;2023-02-28T03:44:32;92648.50;;;-5.70;99.53
52735;BME280;38631;47.572;10.704;2023-02-28T03:47:15;92658.72;;;-5.37;100.00
52735;BME280;38631;47.572;10.704;2023-02-28T03:50:00;92650.22;;;-5.44;100.00
52735;BME280;38631;47.572;10.704;2023-02-28T03:52:33;92649.94;;;-5.29;99.63
52735;BME280;38631;47.572;10.704;2023-02-28T03:55:03;92653.34;;;-5.29;98.61
52735;BME280;38631;47.572;10.704;2023-02-28T03:57:37;92656.78;;;-5.41;99.44
52735;BME280;38631;47.572;10.704;2023-02-28T04:00:15;92648.84;;;-5.47;98.66
52735;BME280;38631;47.572;10.704;2023-02-28T04:02:43;92658.13;;;-5.32;98.96
52735;BME280;38631;47.572;10.704;2023-02-28T04:05:09;92650.00;;;-5.43;98.23
52735;BME280;38631;47.572;10.704;2023-02-28T04:07:35;92654.44;;;-5.63;98.69
52735;BME280;38631;47.572;10.704;2023-02-28T04:10:00;92652.41;;;-5.48;98.45
52735;BME280;38631;47.572;10.704;2023-02-28T04:12:26;92641.09;;;-5.47;98.50
52735;BME280;38631;47.572;10.704;2023-02-28T04:14:51;92653.47;;;-5.69;98.61
52735;BME280;38631;47.572;10.704;2023-02-28T04:17:17;92653.69;;;-5.70;99.45
52735;BME280;38631;47.572;10.704;2023-02-28T04:19:43;92659.06;;;-5.72;100.00
52735;BME280;38631;47.572;10.704;2023-02-28T04:22:09;92649.28;;;-5.56;98.60
52735;BME280;38631;47.572;10.704;2023-02-28T04:24:35;92659.81;;;-5.65;98.59
52735;BME280;38631;47.572;10.704;2023-02-28T04:27:00;92670.38;;;-5.73;98.33
52735;BME280;38631;47.572;10.704;2023-02-28T04:29:28;92663.59;;;-5.67;100.00
52735;BME280;38631;47.572;10.704;2023-02-28T04:31:55;92657.03;;;-5.63;99.67
52735;BME280;38631;47.572;10.704;2023-02-28T04:34:23;92656.34;;;-5.97;98.93
52735;BME280;38631;47.572;10.704;2023-02-28T04:36:48;92651.00;;;-6.15;100.00
52735;BME280;38631;47.572;10.704;2023-02-28T04:39:16;92657.09;;;-5.90;100.00
52735;BME280;38631;47.572;10.704;2023-02-28T04:41:43;92666.28;;;-6.07;100.00
52735;BME280;38631;47.572;10.704;2023-02-28T04:44:09;92670.88;;;-5.96;100.00
52735;BME280;38631;47.572;10.704;2023-02-28T04:46:34;92670.16;;;-5.58;100.00
52735;BME280;38631;47.572;10.704;2023-02-28T04:49:00;92662.81;;;-5.61;100.00
52735;BME280;38631;47.572;10.704;2023-02-28T04:51:25;92662.41;;;-5.58;100.00
52735;BME280;38631;47.572;10.704;2023-02-28T04:53:51;92669.69;;;-5.35;98.98
52735;BME280;38631;47.572;10.704;2023-02-28T04:56:17;92674.59;;;-5.78;98.86
52735;BME280;38631;47.572;10.704;2023-02-28T04:58:43;92670.50;;;-5.41;100.00
52735;BME280;38631;47.572;10.704;2023-02-28T05:01:25;92679.53;;;-5.63;99.28
52735;BME280;38631;47.572;10.704;2023-02-28T05:03:52;92684.97;;;-5.92;100.00
52735;BME280;38631;47.572;10.704;2023-02-28T05:06:19;92680.75;;;-5.86;100.00
52735;BME280;38631;47.572;10.704;2023-02-28T05:08:45;92681.13;;;-5.69;100.00
52735;BME280;38631;47.572;10.704;2023-02-28T05:13:43;92695.19;;;-5.45;100.00
52735;BME280;38631;47.572;10.704;2023-02-28T05:16:09;92694.13;;;-6.02;100.00
52735;BME280;38631;47.572;10.704;2023-02-28T05:18:34;92685.53;;;-5.90;100.00
52735;BME280;38631;47.572;10.704;2023-02-28T05:21:00;92681.00;;;-5.94;100.00
52735;BME280;38631;47.572;10.704;2023-02-28T05:23:27;92688.91;;;-5.82;100.00
52735;BME280;38631;47.572;10.704;2023-02-28T05:25:53;92686.88;;;-5.67;100.00
52735;BME280;38631;47.572;10.704;2023-02-28T05:28:19;92697.44;;;-5.75;100.00
52735;BME280;38631;47.572;10.704;2023-02-28T05:30:44;92698.78;;;-5.53;100.00
52735;BME280;38631;47.572;10.704;2023-02-28T05:33:11;92709.78;;;-5.64;99.92
52735;BME280;38631;47.572;10.704;2023-02-28T05:35:38;92704.97;;;-5.67;99.73
52735;BME280;38631;47.572;10.704;2023-02-28T05:38:04;92712.09;;;-5.43;100.00
52735;BME280;38631;47.572;10.704;2023-02-28T05:40:29;92703.91;;;-5.33;100.00
52735;BME280;38631;47.572;10.704;2023-02-28T05:42:54;92709.72;;;-5.44;99.99
52735;BME280;38631;47.572;10.704;2023-02-28T05:45:20;92715.94;;;-5.58;99.54
52735;BME280;38631;47.572;10.704;2023-02-28T05:47:45;92712.94;;;-5.62;100.00
52735;BME280;38631;47.572;10.704;2023-02-28T05:50:11;92716.00;;;-6.05;100.00
52735;BME280;38631;47.572;10.704;2023-02-28T05:52:36;92718.94;;;-5.88;100.00
52735;BME280;38631;47.572;10.704;2023-02-28T05:55:03;92713.75;;;-5.68;100.00
52735;BME280;38631;47.572;10.704;2023-02-28T05:57:28;92704.00;;;-5.79;99.74
52735;BME280;38631;47.572;10.704;2023-02-28T05:59:53;92719.34;;;-6.24;100.00
52735;BME280;38631;47.572;10.704;2023-02-28T06:02:19;92725.34;;;-6.31;100.00
52735;BME280;38631;47.572;10.704;2023-02-28T06:04:44;92714.38;;;-5.93;100.00
52735;BME280;38631;47.572;10.704;2023-02-28T06:07:10;92712.56;;;-5.92;100.00
52735;BME280;38631;47.572;10.704;2023-02-28T06:09:36;92717.72;;;-5.72;100.00
52735;BME280;38631;47.572;10.704;2023-02-28T06:12:04;92716.00;;;-5.98;100.00
52735;BME280;38631;47.572;10.704;2023-02-28T06:14:31;92723.75;;;-5.98;100.00
52735;BME280;38631;47.572;10.704;2023-02-28T06:16:58;92725.66;;;-5.67;100.00
52735;BME280;38631;47.572;10.704;2023-02-28T06:19:24;92717.53;;;-5.77;100.00
52735;BME280;38631;47.572;10.704;2023-02-28T06:21:54;92730.06;;;-5.68;99.33
52735;BME280;38631;47.572;10.704;2023-02-28T06:24:21;92723.09;;;-5.87;100.00
52735;BME280;38631;47.572;10.704;2023-02-28T06:26:46;92722.53;;;-5.69;100.00
52735;BME280;38631;47.572;10.704;2023-02-28T06:29:12;92736.00;;;-5.60;100.00
52735;BME280;38631;47.572;10.704;2023-02-28T06:31:37;92734.19;;;-5.40;99.70
52735;BME280;38631;47.572;10.704;2023-02-28T06:34:04;92741.75;;;-5.38;99.39
52735;BME280;38631;47.572;10.704;2023-02-28T06:36:29;92737.56;;;-5.39;98.49
52735;BME280;38631;47.572;10.704;2023-02-28T06:38:55;92742.34;;;-5.50;98.65
52735;BME280;38631;47.572;10.704;2023-02-28T06:41:25;92748.97;;;-5.74;99.21
52735;BME280;38631;47.572;10.704;2023-02-28T06:43:51;92741.00;;;-5.92;99.10
52735;BME280;38631;47.572;10.704;2023-02-28T06:46:17;92755.56;;;-5.98;100.00
52735;BME280;38631;47.572;10.704;2023-02-28T06:48:43;92760.13;;;-5.87;100.00
52735;BME280;38631;47.572;10.704;2023-02-28T06:51:15;92762.88;;;-5.75;98.85
52735;BME280;38631;47.572;10.704;2023-02-28T06:53:41;92772.22;;;-5.60;99.26
52735;BME280;38631;47.572;10.704;2023-02-28T06:56:12;92767.88;;;-5.73;98.28
52735;BME280;38631;47.572;10.704;2023-02-28T06:58:39;92774.00;;;-5.74;99.05
52735;BME280;38631;47.572;10.704;2023-02-28T07:01:05;92771.84;;;-5.84;97.77
52735;BME280;38631;47.572;10.704;2023-02-28T07:03:31;92777.59;;;-5.75;98.95
52735;BME280;38631;47.572;10.704;2023-02-28T07:05:56;92773.22;;;-5.61;98.97
52735;BME280;38631;47.572;10.704;2023-02-28T07:08:23;92782.94;;;-5.57;98.29
52735;BME280;38631;47.572;10.704;2023-02-28T07:10:52;92788.72;;;-5.48;97.67
52735;BME280;38631;47.572;10.704;2023-02-28T07:13:17;92788.94;;;-5.76;98.77
52735;BME280;38631;47.572;10.704;2023-02-28T07:15:42;92777.63;;;-6.02;98.58
52735;BME280;38631;47.572;10.704;2023-02-28T07:18:08;92779.63;;;-5.97;98.54
52735;BME280;38631;47.572;10.704;2023-02-28T07:20:33;92771.28;;;-6.19;98.97
52735;BME280;38631;47.572;10.704;2023-02-28T07:22:58;92768.47;;;-6.31;100.00
52735;BME280;38631;47.572;10.704;2023-02-28T07:25:26;92779.81;;;-6.12;100.00
52735;BME280;38631;47.572;10.704;2023-02-28T07:27:52;92776.19;;;-6.38;100.00
52735;BME280;38631;47.572;10.704;2023-02-28T07:30:18;92783.38;;;-5.87;100.00
52735;BME280;38631;47.572;10.704;2023-02-28T07:32:43;92780.59;;;-5.72;98.85
52735;BME280;38631;47.572;10.704;2023-02-28T07:35:08;92774.63;;;-5.86;98.61
52735;BME280;38631;47.572;10.704;2023-02-28T07:37:34;92782.38;;;-5.72;99.21
52735;BME280;38631;47.572;10.704;2023-02-28T07:40:03;92773.03;;;-5.80;98.63
52735;BME280;38631;47.572;10.704;2023-02-28T07:42:31;92775.63;;;-5.73;97.88
52735;BME280;38631;47.572;10.704;2023-02-28T07:44:56;92767.25;;;-5.82;97.91
52735;BME280;38631;47.572;10.704;2023-02-28T07:47:22;92773.63;;;-5.91;97.21
52735;BME280;38631;47.572;10.704;2023-02-28T07:49:47;92781.00;;;-5.68;98.41
52735;BME280;38631;47.572;10.704;2023-02-28T07:52:12;92783.78;;;-5.76;98.31
52735;BME280;38631;47.572;10.704;2023-02-28T07:54:38;92788.34;;;-5.58;97.78
52735;BME280;38631;47.572;10.704;2023-02-28T07:57:03;92787.94;;;-5.62;97.22
52735;BME280;38631;47.572;10.704;2023-02-28T07:59:28;92788.94;;;-5.56;96.83
52735;BME280;38631;47.572;10.704;2023-02-28T08:01:57;92787.53;;;-5.52;98.04
52735;BME280;38631;47.572;10.704;2023-02-28T08:04:22;92789.72;;;-5.82;97.40
52735;BME280;38631;47.572;10.704;2023-02-28T08:06:48;92794.34;;;-6.11;98.35
52735;BME280;38631;47.572;10.704;2023-02-28T08:09:13;92802.06;;;-5.78;97.77
52735;BME280;38631;47.572;10.704;2023-02-28T08:11:39;92800.47;;;-5.72;97.19
52735;BME280;38631;47.572;10.704;2023-02-28T08:14:05;92808.44;;;-5.74;97.44
52735;BME280;38631;47.572;10.704;2023-02-28T08:16:30;92805.25;;;-5.82;97.80
52735;BME280;38631;47.572;10.704;2023-02-28T08:18:56;92808.41;;;-5.87;96.79
52735;BME280;38631;47.572;10.704;2023-02-28T08:21:21;92824.34;;;-5.57;96.68
52735;BME280;38631;47.572;10.704;2023-02-28T08:23:48;92813.59;;;-5.67;97.59
52735;BME280;38631;47.572;10.704;2023-02-28T08:26:16;92819.00;;;-5.49;96.86
52735;BME280;38631;47.572;10.704;2023-02-28T08:28:41;92815.41;;;-6.14;97.69
52735;BME280;38631;47.572;10.704;2023-02-28T08:31:09;92828.13;;;-5.86;97.87
52735;BME280;38631;47.572;10.704;2023-02-28T08:33:34;92829.72;;;-5.98;98.82
52735;BME280;38631;47.572;10.704;2023-02-28T08:36:00;92825.72;;;-5.88;99.50
52735;BME280;38631;47.572;10.704;2023-02-28T08:38:25;92820.16;;;-6.11;99.43
52735;BME280;38631;47.572;10.704;2023-02-28T08:40:57;92826.09;;;-6.17;98.84
52735;BME280;38631;47.572;10.704;2023-02-28T08:43:23;92832.66;;;-6.28;99.35
52735;BME280;38631;47.572;10.704;2023-02-28T08:45:51;92838.75;;;-6.42;100.00
52735;BME280;38631;47.572;10.704;2023-02-28T08:48:17;92840.41;;;-6.28;100.00
52735;BME280;38631;47.572;10.704;2023-02-28T08:50:42;92829.88;;;-6.26;100.00
52735;BME280;38631;47.572;10.704;2023-02-28T08:53:07;92833.69;;;-6.16;100.00
52735;BME280;38631;47.572;10.704;2023-02-28T08:55:33;92842.97;;;-6.35;100.00
52735;BME280;38631;47.572;10.704;2023-02-28T08:57:58;92841.41;;;-6.22;99.91
52735;BME280;38631;47.572;10.704;2023-02-28T09:00:24;92825.97;;;-5.69;100.00
52735;BME280;38631;47.572;10.704;2023-02-28T09:02:49;92827.94;;;-5.71;99.50
52735;BME280;38631;47.572;10.704;2023-02-28T09:05:14;92838.47;;;-5.66;98.61
52735;BME280;38631;47.572;10.704;2023-02-28T09:07:40;92837.09;;;-5.29;97.84
52735;BME280;38631;47.572;10.704;2023-02-28T09:10:06;92848.81;;;-5.33;96.69
52735;BME280;38631;47.572;10.704;2023-02-28T09:12:34;92840.03;;;-5.32;96.19
52735;BME280;38631;47.572;10.704;2023-02-28T09:15:00;92845.63;;;-5.22;95.08
52735;BME280;38631;47.572;10.704;2023-02-28T09:17:25;92845.00;;;-5.17;94.82
52735;BME280;38631;47.572;10.704;2023-02-28T09:19:50;92847.03;;;-5.19;96.51
52735;BME280;38631;47.572;10.704;2023-02-28T09:22:16;92851.19;;;-5.18;94.41
52735;BME280;38631;47.572;10.704;2023-02-28T09:24:41;92851.78;;;-5.09;95.44
52735;BME280;38631;47.572;10.704;2023-02-28T09:27:07;92861.34;;;-5.03;94.45
52735;BME280;38631;47.572;10.704;2023-02-28T09:29:33;92851.78;;;-5.29;95.03
52735;BME280;38631;47.572;10.704;2023-02-28T09:31:59;92856.78;;;-5.21;94.50
52735;BME280;38631;47.572;10.704;2023-02-28T09:34:25;92844.97;;;-4.90;94.29
52735;BME280;38631;47.572;10.704;2023-02-28T09:36:51;92853.38;;;-5.15;93.36
52735;BME280;38631;47.572;10.704;2023-02-28T09:39:20;92845.63;;;-5.08;93.98
52735;BME280;38631;47.572;10.704;2023-02-28T09:41:50;92864.31;;;-5.19;94.90
52735;BME280;38631;47.572;10.704;2023-02-28T09:44:23;92854.19;;;-5.21;94.45
52735;BME280;38631;47.572;10.704;2023-02-28T09:46:55;92864.91;;;-4.97;93.44
52735;BME280;38631;47.572;10.704;2023-02-28T09:49:40;92856.56;;;-5.39;94.60
52735;BME280;38631;47.572;10.704;2023-02-28T09:52:12;92863.34;;;-5.25;97.00
52735;BME280;38631;47.572;10.704;2023-02-28T09:54:39;92869.09;;;-4.96;94.38
52735;BME280;38631;47.572;10.704;2023-02-28T09:57:11;92876.81;;;-4.77;94.21
52735;BME280;38631;47.572;10.704;2023-02-28T09:59:46;92878.09;;;-5.26;95.82
52735;BME280;38631;47.572;10.704;2023-02-28T10:02:38;92875.88;;;-5.09;94.75
52735;BME280;38631;47.572;10.704;2023-02-28T10:05:12;92885.63;;;-4.91;94.25
52735;BME280;38631;47.572;10.704;2023-02-28T10:10:28;92897.94;;;-4.73;94.93
52735;BME280;38631;47.572;10.704;2023-02-28T10:12:56;92892.75;;;-4.80;94.52
52735;BME280;38631;47.572;10.704;2023-02-28T10:15:25;92895.97;;;-4.91;94.31
52735;BME280;38631;47.572;10.704;2023-02-28T10:18:00;92892.19;;;-4.88;95.71
52735;BME280;38631;47.572;10.704;2023-02-28T10:20:31;92889.38;;;-4.87;94.13
52735;BME280;38631;47.572;10.704;2023-02-28T10:23:13;92896.75;;;-4.90;94.87
52735;BME280;38631;47.572;10.704;2023-02-28T10:25:45;92906.13;;;-4.96;95.22
52735;BME280;38631;47.572;10.704;2023-02-28T10:28:16;92899.34;;;-4.90;94.46
52735;BME280;38631;47.572;10.704;2023-02-28T10:30:49;92905.53;;;-5.05;95.34
52735;BME280;38631;47.572;10.704;2023-02-28T10:33:25;92903.75;;;-4.91;95.31
52735;BME280;38631;47.572;10.704;2023-02-28T10:35:53;92898.91;;;-4.61;94.95
52735;BME280;38631;47.572;10.704;2023-02-28T10:38:26;92900.34;;;-4.71;94.06
52735;BME280;38631;47.572;10.704;2023-02-28T10:41:04;92903.75;;;-5.11;94.90
52735;BME280;38631;47.572;10.704;2023-02-28T10:43:30;92906.94;;;-5.02;94.67
52735;BME280;38631;47.572;10.704;2023-02-28T10:45:58;92906.53;;;-4.92;94.45
52735;BME280;38631;47.572;10.704;2023-02-28T10:48:32;92910.47;;;-4.63;95.45
52735;BME280;38631;47.572;10.704;2023-02-28T10:50:57;92906.13;;;-4.83;95.72
52735;BME280;38631;47.572;10.704;2023-02-28T10:58:53;92904.34;;;-4.95;97.02
52735;BME280;38631;47.572;10.704;2023-02-28T11:01:23;92909.25;;;-4.61;96.73
52735;BME280;38631;47.572;10.704;2023-02-28T11:03:50;92895.47;;;-4.48;96.95
52735;BME280;38631;47.572;10.704;2023-02-28T11:06:30;92906.44;;;-4.46;94.67
52735;BME280;38631;47.572;10.704;2023-02-28T11:08:59;92908.63;;;-4.49;94.78
52735;BME280;38631;47.572;10.704;2023-02-28T11:11:28;92910.00;;;-4.40;94.56
52735;BME280;38631;47.572;10.704;2023-02-28T11:13:57;92904.66;;;-4.52;93.75
52735;BME280;38631;47.572;10.704;2023-02-28T11:16:35;92904.03;;;-4.54;93.00
52735;BME280;38631;47.572;10.704;2023-02-28T11:19:03;92908.28;;;-4.73;92.83
52735;BME280;38631;47.572;10.704;2023-02-28T11:21:30;92911.91;;;-4.94;94.88
52735;BME280;38631;47.572;10.704;2023-02-28T11:24:04;92902.41;;;-4.42;94.02
52735;BME280;38631;47.572;10.704;2023-02-28T11:26:40;92905.44;;;-4.51;92.99
52735;BME280;38631;47.572;10.704;2023-02-28T11:29:12;92905.00;;;-4.35;92.45
52735;BME280;38631;47.572;10.704;2023-02-28T11:31:38;92899.81;;;-4.42;92.80
52735;BME280;38631;47.572;10.704;2023-02-28T11:34:22;92906.72;;;-4.87;94.91
52735;BME280;38631;47.572;10.704;2023-02-28T11:36:48;92904.53;;;-4.84;96.57
52735;BME280;38631;47.572;10.704;2023-02-28T11:39:15;92906.75;;;-4.29;94.39
52735;BME280;38631;47.572;10.704;2023-02-28T11:42:16;92907.41;;;-4.33;93.22
52735;BME280;38631;47.572;10.704;2023-02-28T11:45:15;92908.38;;;-4.28;93.15
52735;BME280;38631;47.572;10.704;2023-02-28T11:47:56;92918.50;;;-4.13;93.95
52735;BME280;38631;47.572;10.704;2023-02-28T11:53:02;92917.97;;;-4.35;93.97
52735;BME280;38631;47.572;10.704;2023-02-28T11:55:32;92916.25;;;-4.09;93.51
52735;BME280;38631;47.572;10.704;2023-02-28T12:11:12;92916.25;;;-4.09;94.32
52735;BME280;38631;47.572;10.704;2023-02-28T12:13:51;92915.66;;;-4.05;94.10
52735;BME280;38631;47.572;10.704;2023-02-28T12:16:40;92904.63;;;-4.45;94.05
52735;BME280;38631;47.572;10.704;2023-02-28T12:19:38;92912.09;;;-4.10;93.62
52735;BME280;38631;47.572;10.704;2023-02-28T12:25:13;92913.16;;;-3.86;93.17
52735;BME280;38631;47.572;10.704;2023-02-28T12:27:44;92910.19;;;-4.35;94.39
52735;BME280;38631;47.572;10.704;2023-02-28T12:30:31;92905.78;;;-4.35;94.40
52735;BME280;38631;47.572;10.704;2023-02-28T12:33:06;92907.31;;;-4.14;94.25
52735;BME280;38631;47.572;10.704;2023-02-28T12:35:49;92910.09;;;-4.08;94.46
52735;BME280;38631;47.572;10.704;2023-02-28T12:38:22;92903.47;;;-4.04;95.89
52735;BME280;38631;47.572;10.704;2023-02-28T12:40:54;92893.63;;;-3.89;95.50
52735;BME280;38631;47.572;10.704;2023-02-28T12:43:25;92891.69;;;-4.00;95.30
52735;BME280;38631;47.572;10.704;2023-02-28T12:45:56;92889.31;;;-4.02;95.78
52735;BME280;38631;47.572;10.704;2023-02-28T12:48:30;92885.75;;;-4.07;94.25
52735;BME280;38631;47.572;10.704;2023-02-28T12:50:57;92892.56;;;-3.75;95.88
52735;BME280;38631;47.572;10.704;2023-02-28T12:56:21;92885.91;;;-3.64;95.26
52735;BME280;38631;47.572;10.704;2023-02-28T12:58:53;92879.22;;;-3.78;94.14
52735;BME280;38631;47.572;10.704;2023-02-28T13:07:30;92882.84;;;-3.54;93.95
52735;BME280;38631;47.572;10.704;2023-02-28T13:09:59;92870.53;;;-3.97;93.62
52735;BME280;38631;47.572;10.704;2023-02-28T13:12:27;92870.00;;;-4.13;94.82
52735;BME280;38631;47.572;10.704;2023-02-28T13:15:05;92878.31;;;-4.42;96.14
52735;BME280;38631;47.572;10.704;2023-02-28T13:17:36;92876.19;;;-4.59;97.41
52735;BME280;38631;47.572;10.704;2023-02-28T13:20:03;92884.50;;;-4.50;97.81
52735;BME280;38631;47.572;10.704;2023-02-28T13:25:00;92879.84;;;-4.21;97.88
52735;BME280;38631;47.572;10.704;2023-02-28T13:27:39;92882.81;;;-4.24;97.10
52735;BME280;38631;47.572;10.704;2023-02-28T13:33:29;92879.59;;;-3.75;94.61
52735;BME280;38631;47.572;10.704;2023-02-28T13:36:08;92885.09;;;-4.41;96.65
52735;BME280;38631;47.572;10.704;2023-02-28T13:38:41;92879.09;;;-4.35;97.48
52735;BME280;38631;47.572;10.704;2023-02-28T13:46:31;92877.91;;;-3.62;96.79
52735;BME280;38631;47.572;10.704;2023-02-28T13:49:23;92892.31;;;-3.66;96.34
52735;BME280;38631;47.572;10.704;2023-02-28T13:51:52;92885.09;;;-3.64;97.54
52735;BME280;38631;47.572;10.704;2023-02-28T13:58:00;92888.22;;;-3.81;95.15
52735;BME280;38631;47.572;10.704;2023-02-28T14:00:39;92881.44;;;-3.50;96.67
52735;BME280;38631;47.572;10.704;2023-02-28T14:05:43;92885.09;;;-3.64;97.79
52735;BME280;38631;47.572;10.704;2023-02-28T14:08:15;92884.25;;;-3.83;97.27
52735;BME280;38631;47.572;10.704;2023-02-28T14:10:45;92887.16;;;-3.41;96.83
52735;BME280;38631;47.572;10.704;2023-02-28T14:13:38;92895.69;;;-3.34;97.17
52735;BME280;38631;47.572;10.704;2023-02-28T14:16:10;92880.94;;;-3.65;96.80
52735;BME280;38631;47.572;10.704;2023-02-28T14:18:41;92892.59;;;-3.50;97.37
52735;BME280;38631;47.572;10.704;2023-02-28T14:23:49;92897.06;;;-3.32;98.07
52735;BME280;38631;47.572;10.704;2023-02-28T14:31:43;92891.38;;;-3.47;97.21